sensor_id;sensor_type;location;lat;lon;timestamp;pressure;altitude;pressure_sealevel;temperature;humidity
24752;BME280;27246;52.376;4.628;2023-12-22T00:04:11;100152.97;;;9.57;83.75
24752;BME280;27246;52.376;4.628;2023-12-22T00:09:14;100165.06;;;9.48;85.68
24752;BME280;27246;52.376;4.628;2023-12-22T00:14:16;100163.03;;;10.01;89.74
24752;BME280;27246;52.376;4.628;2023-12-22T00:19:18;100182.00;;;9.81;89.35
24752;BME280;27246;52.376;4.628;2023-12-22T00:24:20;100149.28;;;9.12;90.98
24752;BME280;27246;52.376;4.628;2023-12-22T00:29:21;100154.66;;;9.58;91.19
24752;BME280;27246;52.376;4.628;2023-12-22T00:34:23;100149.47;;;9.64;91.00
24752;BME280;27246;52.376;4.628;2023-12-22T00:39:25;100137.78;;;10.28;92.85
24752;BME280;27246;52.376;4.628;2023-12-22T00:44:27;100155.78;;;9.79;92.40
24752;BME280;27246;52.376;4.628;2023-12-22T00:49:31;100158.34;;;9.66;92.25
24752;BME280;27246;52.376;4.628;2023-12-22T00:54:32;100159.44;;;9.27;89.15
24752;BME280;27246;52.376;4.628;2023-12-22T00:59:34;100162.78;;;9.67;89.79
24752;BME280;27246;52.376;4.628;2023-12-22T01:04:36;100166.34;;;9.23;89.91
24752;BME280;27246;52.376;4.628;2023-12-22T01:09:38;100163.91;;;8.90;89.97
24752;BME280;27246;52.376;4.628;2023-12-22T01:14:39;100170.53;;;8.95;90.06
24752;BME280;27246;52.376;4.628;2023-12-22T01:19:41;100160.13;;;8.91;91.21
24752;BME280;27246;52.376;4.628;2023-12-22T01:24:43;100153.78;;;8.90;92.09
24752;BME280;27246;52.376;4.628;2023-12-22T01:29:47;100149.38;;;9.04;93.02
24752;BME280;27246;52.376;4.628;2023-12-22T01:34:48;100143.44;;;8.77;92.71
24752;BME280;27246;52.376;4.628;2023-12-22T01:39:50;100156.44;;;8.98;91.04
24752;BME280;27246;52.376;4.628;2023-12-22T01:44:52;100159.84;;;9.38;84.31
24752;BME280;27246;52.376;4.628;2023-12-22T01:49:54;100154.44;;;9.15;80.50
24752;BME280;27246;52.376;4.628;2023-12-22T01:54:56;100170.91;;;9.45;79.98
24752;BME280;27246;52.376;4.628;2023-12-22T01:59:57;100179.25;;;9.67;78.95
24752;BME280;27246;52.376;4.628;2023-12-22T02:04:59;100166.00;;;9.26;77.16
24752;BME280;27246;52.376;4.628;2023-12-22T02:10:01;100161.91;;;9.51;75.45
24752;BME280;27246;52.376;4.628;2023-12-22T02:15:05;100171.50;;;9.70;75.00
24752;BME280;27246;52.376;4.628;2023-12-22T02:20:08;100165.16;;;9.55;76.15
24752;BME280;27246;52.376;4.628;2023-12-22T02:25:11;100170.06;;;9.45;74.53
24752;BME280;27246;52.376;4.628;2023-12-22T02:30:19;100165.72;;;9.35;76.01
24752;BME280;27246;52.376;4.628;2023-12-22T02:35:26;100184.19;;;9.86;76.30
24752;BME280;27246;52.376;4.628;2023-12-22T02:40:31;100175.84;;;9.65;72.65
24752;BME280;27246;52.376;4.628;2023-12-22T02:45:33;100181.63;;;9.99;74.54
24752;BME280;27246;52.376;4.628;2023-12-22T02:50:35;100175.66;;;9.81;72.77
24752;BME280;27246;52.376;4.628;2023-12-22T02:55:37;100165.72;;;9.95;75.72
24752;BME280;27246;52.376;4.628;2023-12-22T03:00:39;100187.19;;;10.36;76.94
24752;BME280;27246;52.376;4.628;2023-12-22T03:05:41;100192.81;;;9.68;76.77
24752;BME280;27246;52.376;4.628;2023-12-22T03:10:43;100180.75;;;10.14;79.32
24752;BME280;27246;52.376;4.628;2023-12-22T03:15:45;100176.06;;;9.78;76.24
24752;BME280;27246;52.376;4.628;2023-12-22T03:20:48;100188.72;;;10.09;78.48
24752;BME280;27246;52.376;4.628;2023-12-22T03:25:50;100181.63;;;9.99;74.12
24752;BME280;27246;52.376;4.628;2023-12-22T03:30:52;100178.28;;;10.19;73.20
24752;BME280;27246;52.376;4.628;2023-12-22T03:35:54;100188.63;;;10.17;72.59
24752;BME280;27246;52.376;4.628;2023-12-22T03:40:56;100195.56;;;9.68;69.31
24752;BME280;27246;52.376;4.628;2023-12-22T03:45:57;100199.81;;;10.30;75.28
24752;BME280;27246;52.376;4.628;2023-12-22T03:50:59;100193.81;;;10.12;72.48
24752;BME280;27246;52.376;4.628;2023-12-22T03:56:01;100185.28;;;10.21;71.02
24752;BME280;27246;52.376;4.628;2023-12-22T04:01:03;100190.13;;;10.34;72.32
24752;BME280;27246;52.376;4.628;2023-12-22T04:06:05;100202.88;;;10.57;74.69
24752;BME280;27246;52.376;4.628;2023-12-22T04:11:07;100199.59;;;10.17;74.02
24752;BME280;27246;52.376;4.628;2023-12-22T04:16:08;100198.69;;;9.80;74.42
24752;BME280;27246;52.376;4.628;2023-12-22T04:21:10;100195.75;;;9.67;75.81
24752;BME280;27246;52.376;4.628;2023-12-22T04:26:12;100195.72;;;10.11;78.05
24752;BME280;27246;52.376;4.628;2023-12-22T04:31:14;100183.53;;;9.84;78.51
24752;BME280;27246;52.376;4.628;2023-12-22T04:36:16;100189.00;;;9.69;78.19
24752;BME280;27246;52.376;4.628;2023-12-22T04:41:17;100194.88;;;9.81;78.09
24752;BME280;27246;52.376;4.628;2023-12-22T04:46:19;100205.03;;;9.66;77.99
24752;BME280;27246;52.376;4.628;2023-12-22T04:51:21;100207.56;;;10.12;79.03
24752;BME280;27246;52.376;4.628;2023-12-22T04:56:23;100190.91;;;9.54;76.52
24752;BME280;27246;52.376;4.628;2023-12-22T05:01:25;100193.75;;;9.75;78.48
24752;BME280;27246;52.376;4.628;2023-12-22T05:06:27;100193.66;;;9.69;77.54
24752;BME280;27246;52.376;4.628;2023-12-22T05:11:30;100189.69;;;9.86;78.58
24752;BME280;27246;52.376;4.628;2023-12-22T05:16:32;100171.78;;;9.75;80.38
24752;BME280;27246;52.376;4.628;2023-12-22T05:21:34;100170.47;;;9.56;81.47
24752;BME280;27246;52.376;4.628;2023-12-22T05:26:35;100184.28;;;9.78;82.58
24752;BME280;27246;52.376;4.628;2023-12-22T05:31:38;100174.34;;;9.92;83.00
24752;BME280;27246;52.376;4.628;2023-12-22T05:36:40;100166.00;;;9.85;82.04
24752;BME280;27246;52.376;4.628;2023-12-22T05:41:41;100181.00;;;9.68;81.37
24752;BME280;27246;52.376;4.628;2023-12-22T05:46:43;100171.13;;;9.58;81.80
24752;BME280;27246;52.376;4.628;2023-12-22T05:51:45;100189.50;;;9.73;82.29
24752;BME280;27246;52.376;4.628;2023-12-22T05:56:47;100193.38;;;9.78;81.59
24752;BME280;27246;52.376;4.628;2023-12-22T06:01:53;100174.13;;;9.93;83.68
24752;BME280;27246;52.376;4.628;2023-12-22T06:06:55;100179.53;;;10.16;83.95
24752;BME280;27246;52.376;4.628;2023-12-22T06:11:57;100184.28;;;9.78;83.41
24752;BME280;27246;52.376;4.628;2023-12-22T06:16:59;100203.84;;;10.19;84.98
24752;BME280;27246;52.376;4.628;2023-12-22T06:22:01;100195.56;;;9.83;85.58
24752;BME280;27246;52.376;4.628;2023-12-22T06:27:03;100187.31;;;9.83;86.32
24752;BME280;27246;52.376;4.628;2023-12-22T06:32:05;100182.09;;;9.73;86.43
24752;BME280;27246;52.376;4.628;2023-12-22T06:37:08;100186.09;;;9.71;86.62
24752;BME280;27246;52.376;4.628;2023-12-22T06:42:10;100175.09;;;9.71;84.76
24752;BME280;27246;52.376;4.628;2023-12-22T06:47:13;100177.66;;;9.72;85.60
24752;BME280;27246;52.376;4.628;2023-12-22T06:52:15;100174.16;;;9.64;87.61
24752;BME280;27246;52.376;4.628;2023-12-22T06:57:17;100172.28;;;9.64;89.24
24752;BME280;27246;52.376;4.628;2023-12-22T07:02:20;100174.53;;;9.60;90.01
24752;BME280;27246;52.376;4.628;2023-12-22T07:07:25;100150.38;;;9.71;92.54
24752;BME280;27246;52.376;4.628;2023-12-22T07:12:26;100163.19;;;9.64;94.77
24752;BME280;27246;52.376;4.628;2023-12-22T07:17:29;100165.06;;;9.78;95.32
24752;BME280;27246;52.376;4.628;2023-12-22T07:22:31;100172.34;;;9.71;96.15
24752;BME280;27246;52.376;4.628;2023-12-22T07:27:33;100181.34;;;9.65;96.31
24752;BME280;27246;52.376;4.628;2023-12-22T07:32:34;100179.56;;;9.72;96.45
24752;BME280;27246;52.376;4.628;2023-12-22T07:37:36;100161.94;;;9.66;97.68
24752;BME280;27246;52.376;4.628;2023-12-22T07:42:40;100178.50;;;9.73;98.25
24752;BME280;27246;52.376;4.628;2023-12-22T07:47:41;100175.84;;;9.50;100.00
24752;BME280;27246;52.376;4.628;2023-12-22T07:52:50;100176.03;;;9.48;100.00
24752;BME280;27246;52.376;4.628;2023-12-22T07:57:52;100164.22;;;9.48;100.00
24752;BME280;27246;52.376;4.628;2023-12-22T08:02:53;100164.88;;;9.50;100.00
24752;BME280;27246;52.376;4.628;2023-12-22T08:07:55;100194.59;;;9.46;100.00
24752;BME280;27246;52.376;4.628;2023-12-22T08:12:57;100158.47;;;9.57;100.00
24752;BME280;27246;52.376;4.628;2023-12-22T08:17:59;100153.72;;;9.66;100.00
24752;BME280;27246;52.376;4.628;2023-12-22T08:23:01;100148.97;;;9.60;100.00
24752;BME280;27246;52.376;4.628;2023-12-22T08:28:09;100132.50;;;9.75;100.00
24752;BME280;27246;52.376;4.628;2023-12-22T08:33:11;100137.63;;;9.78;100.00
24752;BME280;27246;52.376;4.628;2023-12-22T08:38:13;100141.56;;;9.90;100.00
24752;BME280;27246;52.376;4.628;2023-12-22T08:43:15;100144.47;;;10.76;100.00
24752;BME280;27246;52.376;4.628;2023-12-22T08:48:18;100142.91;;;9.94;100.00
24752;BME280;27246;52.376;4.628;2023-12-22T08:53:20;100170.38;;;9.94;100.00
24752;BME280;27246;52.376;4.628;2023-12-22T08:58:28;100140.81;;;9.81;100.00
24752;BME280;27246;52.376;4.628;2023-12-22T09:03:33;100138.94;;;9.82;100.00
24752;BME280;27246;52.376;4.628;2023-12-22T09:08:35;100134.38;;;9.89;100.00
24752;BME280;27246;52.376;4.628;2023-12-22T09:13:37;100129.81;;;9.96;100.00
24752;BME280;27246;52.376;4.628;2023-12-22T09:18:39;100146.78;;;10.00;100.00
24752;BME280;27246;52.376;4.628;2023-12-22T09:23:41;100156.22;;;10.12;100.00
24752;BME280;27246;52.376;4.628;2023-12-22T09:28:46;100152.88;;;10.17;100.00
24752;BME280;27246;52.376;4.628;2023-12-22T09:33:48;100166.16;;;10.13;100.00
24752;BME280;27246;52.376;4.628;2023-12-22T09:38:50;100163.81;;;10.10;100.00
24752;BME280;27246;52.376;4.628;2023-12-22T09:43:53;100168.25;;;10.11;100.00
24752;BME280;27246;52.376;4.628;2023-12-22T09:48:58;100154.44;;;10.05;100.00
24752;BME280;27246;52.376;4.628;2023-12-22T09:54:02;100173.25;;;10.23;100.00
24752;BME280;27246;52.376;4.628;2023-12-22T09:59:06;100162.53;;;10.43;100.00
24752;BME280;27246;52.376;4.628;2023-12-22T10:04:08;100174.09;;;10.23;100.00
24752;BME280;27246;52.376;4.628;2023-12-22T10:09:10;100162.28;;;10.23;100.00
24752;BME280;27246;52.376;4.628;2023-12-22T10:14:13;100172.22;;;10.38;100.00
24752;BME280;27246;52.376;4.628;2023-12-22T10:19:23;100175.03;;;10.45;100.00
24752;BME280;27246;52.376;4.628;2023-12-22T10:24:42;100182.44;;;10.45;100.00
24752;BME280;27246;52.376;4.628;2023-12-22T10:29:55;100196.44;;;10.50;100.00
24752;BME280;27246;52.376;4.628;2023-12-22T10:34:58;100184.41;;;10.72;100.00
24752;BME280;27246;52.376;4.628;2023-12-22T10:40:00;100184.00;;;10.54;100.00
24752;BME280;27246;52.376;4.628;2023-12-22T10:45:02;100193.53;;;10.36;100.00
24752;BME280;27246;52.376;4.628;2023-12-22T10:50:05;100170.66;;;10.51;100.00
24752;BME280;27246;52.376;4.628;2023-12-22T10:55:07;100167.84;;;10.66;99.67
24752;BME280;27246;52.376;4.628;2023-12-22T11:00:10;100173.78;;;10.48;100.00
24752;BME280;27246;52.376;4.628;2023-12-22T11:05:15;100181.38;;;10.46;99.94
24752;BME280;27246;52.376;4.628;2023-12-22T11:10:20;100176.94;;;10.88;99.28
24752;BME280;27246;52.376;4.628;2023-12-22T11:15:24;100167.66;;;10.67;99.28
24752;BME280;27246;52.376;4.628;2023-12-22T11:20:27;100146.16;;;10.56;99.14
24752;BME280;27246;52.376;4.628;2023-12-22T11:25:30;100154.94;;;10.45;99.49
24752;BME280;27246;52.376;4.628;2023-12-22T11:30:34;100148.38;;;10.46;100.00
24752;BME280;27246;52.376;4.628;2023-12-22T11:35:36;100164.22;;;10.44;99.87
24752;BME280;27246;52.376;4.628;2023-12-22T11:40:39;100136.47;;;10.60;99.58
24752;BME280;27246;52.376;4.628;2023-12-22T11:45:42;100132.69;;;10.61;99.99
24752;BME280;27246;52.376;4.628;2023-12-22T11:50:44;100124.78;;;10.73;99.28
24752;BME280;27246;52.376;4.628;2023-12-22T11:56:03;100106.50;;;10.65;99.35
24752;BME280;27246;52.376;4.628;2023-12-22T12:01:12;100111.91;;;10.80;99.68
24752;BME280;27246;52.376;4.628;2023-12-22T12:11:24;100120.97;;;10.74;99.39
24752;BME280;27246;52.376;4.628;2023-12-22T12:16:45;100115.81;;;10.92;98.44
24752;BME280;27246;52.376;4.628;2023-12-22T12:21:47;100102.56;;;10.74;98.82
24752;BME280;27246;52.376;4.628;2023-12-22T12:26:49;100105.88;;;10.91;98.03
24752;BME280;27246;52.376;4.628;2023-12-22T12:31:51;100104.81;;;11.20;97.53
24752;BME280;27246;52.376;4.628;2023-12-22T12:36:53;100097.78;;;11.11;96.67
24752;BME280;27246;52.376;4.628;2023-12-22T12:41:57;100110.69;;;11.11;96.28
24752;BME280;27246;52.376;4.628;2023-12-22T12:47:14;100092.09;;;10.85;96.04
24752;BME280;27246;52.376;4.628;2023-12-22T12:52:16;100102.03;;;10.86;96.77
24752;BME280;27246;52.376;4.628;2023-12-22T12:57:19;100100.56;;;10.90;97.29
24752;BME280;27246;52.376;4.628;2023-12-22T13:02:21;100095.44;;;11.08;96.86
24752;BME280;27246;52.376;4.628;2023-12-22T13:07:25;100105.19;;;11.11;96.35
24752;BME280;27246;52.376;4.628;2023-12-22T13:12:27;100111.59;;;10.90;96.99
24752;BME280;27246;52.376;4.628;2023-12-22T13:17:30;100100.78;;;11.16;97.33
24752;BME280;27246;52.376;4.628;2023-12-22T13:22:32;100106.06;;;11.11;96.82
24752;BME280;27246;52.376;4.628;2023-12-22T13:27:47;100091.88;;;10.86;97.44
24752;BME280;27246;52.376;4.628;2023-12-22T13:32:54;100109.63;;;10.84;97.73
24752;BME280;27246;52.376;4.628;2023-12-22T13:37:56;100104.25;;;10.97;96.82
24752;BME280;27246;52.376;4.628;2023-12-22T13:42:58;100114.03;;;11.06;97.26
24752;BME280;27246;52.376;4.628;2023-12-22T13:48:00;100136.81;;;10.93;96.45
24752;BME280;27246;52.376;4.628;2023-12-22T13:53:09;100138.50;;;11.23;96.34
24752;BME280;27246;52.376;4.628;2023-12-22T13:58:11;100137.47;;;11.24;95.62
24752;BME280;27246;52.376;4.628;2023-12-22T14:03:16;100152.38;;;11.36;94.58
24752;BME280;27246;52.376;4.628;2023-12-22T14:08:18;100140.38;;;11.15;94.25
24752;BME280;27246;52.376;4.628;2023-12-22T14:13:20;100137.94;;;11.27;94.27
24752;BME280;27246;52.376;4.628;2023-12-22T14:18:22;100166.75;;;11.31;94.80
24752;BME280;27246;52.376;4.628;2023-12-22T14:23:25;100163.63;;;11.13;94.24
24752;BME280;27246;52.376;4.628;2023-12-22T14:28:27;100184.31;;;11.09;95.48
24752;BME280;27246;52.376;4.628;2023-12-22T14:33:29;100169.00;;;11.21;95.43
24752;BME280;27246;52.376;4.628;2023-12-22T14:38:31;100179.03;;;11.07;95.80
24752;BME280;27246;52.376;4.628;2023-12-22T14:43:33;100196.31;;;11.23;95.07
24752;BME280;27246;52.376;4.628;2023-12-22T14:48:35;100195.00;;;11.18;94.55
24752;BME280;27246;52.376;4.628;2023-12-22T14:53:36;100185.41;;;11.36;94.83
24752;BME280;27246;52.376;4.628;2023-12-22T14:58:38;100214.78;;;11.29;93.40
24752;BME280;27246;52.376;4.628;2023-12-22T15:03:40;100198.16;;;11.15;93.02
24752;BME280;27246;52.376;4.628;2023-12-22T15:08:42;100204.66;;;11.08;93.32
24752;BME280;27246;52.376;4.628;2023-12-22T15:13:44;100201.13;;;11.42;93.09
24752;BME280;27246;52.376;4.628;2023-12-22T15:18:46;100201.38;;;11.19;93.53
24752;BME280;27246;52.376;4.628;2023-12-22T15:23:47;100226.84;;;11.28;94.23
24752;BME280;27246;52.376;4.628;2023-12-22T15:28:49;100221.50;;;11.19;93.66
24752;BME280;27246;52.376;4.628;2023-12-22T15:33:51;100224.09;;;11.06;94.02
24752;BME280;27246;52.376;4.628;2023-12-22T15:38:53;100229.38;;;11.01;94.86
24752;BME280;27246;52.376;4.628;2023-12-22T15:43:55;100231.84;;;10.96;94.63
24752;BME280;27246;52.376;4.628;2023-12-22T15:48:56;100257.66;;;10.95;95.24
24752;BME280;27246;52.376;4.628;2023-12-22T15:54:00;100242.25;;;11.00;94.56
24752;BME280;27246;52.376;4.628;2023-12-22T15:59:01;100249.16;;;11.11;94.95
24752;BME280;27246;52.376;4.628;2023-12-22T16:04:03;100240.03;;;11.11;94.80
24752;BME280;27246;52.376;4.628;2023-12-22T16:09:05;100249.41;;;10.95;95.55
24752;BME280;27246;52.376;4.628;2023-12-22T16:14:07;100263.03;;;11.03;95.92
24752;BME280;27246;52.376;4.628;2023-12-22T16:19:09;100270.50;;;10.88;96.24
24752;BME280;27246;52.376;4.628;2023-12-22T16:24:12;100272.00;;;11.12;95.93
24752;BME280;27246;52.376;4.628;2023-12-22T16:29:14;100271.50;;;11.01;95.62
24752;BME280;27246;52.376;4.628;2023-12-22T16:34:16;100264.41;;;11.35;95.09
24752;BME280;27246;52.376;4.628;2023-12-22T16:39:17;100268.47;;;11.39;93.71
24752;BME280;27246;52.376;4.628;2023-12-22T16:44:19;100264.53;;;11.06;93.34
24752;BME280;27246;52.376;4.628;2023-12-22T16:49:23;100261.72;;;11.20;93.33
24752;BME280;27246;52.376;4.628;2023-12-22T16:54:25;100262.22;;;11.31;93.90
24752;BME280;27246;52.376;4.628;2023-12-22T16:59:27;100257.78;;;11.30;93.61
24752;BME280;27246;52.376;4.628;2023-12-22T17:04:28;100274.84;;;10.97;93.39
24752;BME280;27246;52.376;4.628;2023-12-22T17:09:31;100286.28;;;11.00;94.20
24752;BME280;27246;52.376;4.628;2023-12-22T17:14:33;100290.56;;;11.03;93.92
24752;BME280;27246;52.376;4.628;2023-12-22T17:19:35;100304.91;;;11.20;93.49
24752;BME280;27246;52.376;4.628;2023-12-22T17:24:37;100296.47;;;11.21;93.24
24752;BME280;27246;52.376;4.628;2023-12-22T17:29:44;100300.06;;;11.22;93.64
24752;BME280;27246;52.376;4.628;2023-12-22T17:34:46;100298.56;;;11.19;93.52
24752;BME280;27246;52.376;4.628;2023-12-22T17:39:48;100301.47;;;11.61;94.41
24752;BME280;27246;52.376;4.628;2023-12-22T17:44:49;100322.34;;;11.06;93.34
24752;BME280;27246;52.376;4.628;2023-12-22T17:49:51;100336.81;;;10.93;94.72
24752;BME280;27246;52.376;4.628;2023-12-22T17:54:53;100350.19;;;11.17;93.67
24752;BME280;27246;52.376;4.628;2023-12-22T18:00:01;100352.72;;;10.97;93.77
24752;BME280;27246;52.376;4.628;2023-12-22T18:05:08;100352.91;;;11.32;94.41
24752;BME280;27246;52.376;4.628;2023-12-22T18:10:10;100365.88;;;11.17;93.28
24752;BME280;27246;52.376;4.628;2023-12-22T18:15:15;100364.75;;;11.11;94.39
24752;BME280;27246;52.376;4.628;2023-12-22T18:20:21;100359.50;;;11.16;93.35
24752;BME280;27246;52.376;4.628;2023-12-22T18:25:24;100372.16;;;10.96;93.28
24752;BME280;27246;52.376;4.628;2023-12-22T18:30:28;100383.34;;;11.09;93.19
24752;BME280;27246;52.376;4.628;2023-12-22T18:35:30;100376.66;;;11.18;92.72
24752;BME280;27246;52.376;4.628;2023-12-22T18:40:34;100392.03;;;11.13;91.34
24752;BME280;27246;52.376;4.628;2023-12-22T18:45:49;100406.88;;;11.48;93.17
24752;BME280;27246;52.376;4.628;2023-12-22T18:50:51;100477.31;;;11.79;91.85
24752;BME280;27246;52.376;4.628;2023-12-22T18:56:03;100445.31;;;10.90;92.77
24752;BME280;27246;52.376;4.628;2023-12-22T19:01:05;100461.63;;;10.92;94.28
24752;BME280;27246;52.376;4.628;2023-12-22T19:06:12;100472.53;;;10.70;95.14
24752;BME280;27246;52.376;4.628;2023-12-22T19:11:15;100473.34;;;10.41;96.13
24752;BME280;27246;52.376;4.628;2023-12-22T19:16:17;100479.94;;;10.55;97.28
24752;BME280;27246;52.376;4.628;2023-12-22T19:21:18;100502.50;;;10.65;97.30
24752;BME280;27246;52.376;4.628;2023-12-22T19:26:20;100511.41;;;10.29;97.80
24752;BME280;27246;52.376;4.628;2023-12-22T19:31:22;100517.53;;;10.16;97.38
24752;BME280;27246;52.376;4.628;2023-12-22T19:36:30;100537.09;;;10.13;97.53
24752;BME280;27246;52.376;4.628;2023-12-22T19:41:33;100542.09;;;10.18;96.45
24752;BME280;27246;52.376;4.628;2023-12-22T19:46:36;100554.97;;;10.40;96.80
24752;BME280;27246;52.376;4.628;2023-12-22T19:51:38;100574.50;;;10.46;94.30
24752;BME280;27246;52.376;4.628;2023-12-22T19:56:40;100582.56;;;10.24;93.36
24752;BME280;27246;52.376;4.628;2023-12-22T20:01:44;100596.34;;;10.16;92.47
24752;BME280;27246;52.376;4.628;2023-12-22T20:06:46;100578.91;;;10.32;92.54
24752;BME280;27246;52.376;4.628;2023-12-22T20:11:48;100595.53;;;10.07;91.03
24752;BME280;27246;52.376;4.628;2023-12-22T20:16:50;100608.16;;;10.25;90.56
24752;BME280;27246;52.376;4.628;2023-12-22T20:21:54;100620.16;;;10.00;91.76
24752;BME280;27246;52.376;4.628;2023-12-22T20:26:56;100621.78;;;10.18;91.61
24752;BME280;27246;52.376;4.628;2023-12-22T20:31:58;100632.50;;;10.05;90.69
24752;BME280;27246;52.376;4.628;2023-12-22T20:37:00;100639.38;;;10.00;90.16
24752;BME280;27246;52.376;4.628;2023-12-22T20:42:02;100658.25;;;10.04;90.14
24752;BME280;27246;52.376;4.628;2023-12-22T20:47:04;100656.97;;;9.83;88.99
24752;BME280;27246;52.376;4.628;2023-12-22T20:52:06;100670.44;;;10.01;87.97
24752;BME280;27246;52.376;4.628;2023-12-22T20:57:08;100676.41;;;10.13;88.39
24752;BME280;27246;52.376;4.628;2023-12-22T21:02:10;100689.31;;;10.12;88.02
24752;BME280;27246;52.376;4.628;2023-12-22T21:07:11;100701.13;;;10.13;87.44
24752;BME280;27246;52.376;4.628;2023-12-22T21:12:14;100703.97;;;10.36;86.91
24752;BME280;27246;52.376;4.628;2023-12-22T21:17:17;100699.25;;;10.13;86.02
24752;BME280;27246;52.376;4.628;2023-12-22T21:22:21;100712.53;;;9.93;86.57
24752;BME280;27246;52.376;4.628;2023-12-22T21:27:23;100706.88;;;10.43;89.44
24752;BME280;27246;52.376;4.628;2023-12-22T21:32:24;100716.56;;;10.22;88.28
24752;BME280;27246;52.376;4.628;2023-12-22T21:37:29;100724.03;;;9.97;89.01
24752;BME280;27246;52.376;4.628;2023-12-22T21:42:31;100722.19;;;9.89;89.45
24752;BME280;27246;52.376;4.628;2023-12-22T21:47:32;100720.47;;;9.88;89.24
24752;BME280;27246;52.376;4.628;2023-12-22T21:52:35;100719.16;;;9.76;88.28
24752;BME280;27246;52.376;4.628;2023-12-22T21:57:37;100723.44;;;9.70;87.96
24752;BME280;27246;52.376;4.628;2023-12-22T22:02:39;100730.50;;;9.65;88.29
24752;BME280;27246;52.376;4.628;2023-12-22T22:07:41;100734.63;;;9.60;88.80
24752;BME280;27246;52.376;4.628;2023-12-22T22:12:43;100750.38;;;9.75;89.19
24752;BME280;27246;52.376;4.628;2023-12-22T22:17:52;100746.28;;;9.71;89.29
24752;BME280;27246;52.376;4.628;2023-12-22T22:22:54;100748.47;;;9.75;89.53
24752;BME280;27246;52.376;4.628;2023-12-22T22:27:56;100762.72;;;9.79;88.64
24752;BME280;27246;52.376;4.628;2023-12-22T22:32:58;100764.09;;;9.75;89.28
24752;BME280;27246;52.376;4.628;2023-12-22T22:38:00;100776.81;;;9.76;90.38
24752;BME280;27246;52.376;4.628;2023-12-22T22:43:02;100764.97;;;9.75;90.40
24752;BME280;27246;52.376;4.628;2023-12-22T22:48:04;100775.25;;;9.73;91.40
24752;BME280;27246;52.376;4.628;2023-12-22T22:53:07;100782.50;;;9.66;90.73
24752;BME280;27246;52.376;4.628;2023-12-22T22:58:10;100794.16;;;9.68;92.66
24752;BME280;27246;52.376;4.628;2023-12-22T23:03:12;100788.69;;;9.60;92.74
24752;BME280;27246;52.376;4.628;2023-12-22T23:08:13;100802.41;;;9.60;93.74
24752;BME280;27246;52.376;4.628;2023-12-22T23:13:15;100802.25;;;9.61;95.39
24752;BME280;27246;52.376;4.628;2023-12-22T23:18:17;100795.72;;;9.54;95.87
24752;BME280;27246;52.376;4.628;2023-12-22T23:23:19;100807.38;;;9.56;97.30
24752;BME280;27246;52.376;4.628;2023-12-22T23:28:21;100805.69;;;9.55;96.47
24752;BME280;27246;52.376;4.628;2023-12-22T23:33:22;100808.94;;;9.51;95.90
24752;BME280;27246;52.376;4.628;2023-12-22T23:38:24;100804.66;;;9.56;95.19
24752;BME280;27246;52.376;4.628;2023-12-22T23:43:26;100819.06;;;9.58;94.10
24752;BME280;27246;52.376;4.628;2023-12-22T23:48:28;100806.72;;;9.54;92.80
24752;BME280;27246;52.376;4.628;2023-12-22T23:53:30;100816.84;;;9.54;92.01
24752;BME280;27246;52.376;4.628;2023-12-22T23:58:31;100812.19;;;9.63;91.13
